createdAt,value
2023-03-19T00:02:22.940Z,41.50
2023-03-19T00:04:51.335Z,42.25
2023-03-19T00:07:19.698Z,42.00
2023-03-19T00:09:49.189Z,39.25
2023-03-19T00:12:17.658Z,37.25
2023-03-19T00:14:54.165Z,39.50
2023-03-19T00:17:26.882Z,45.25
2023-03-19T00:25:36.320Z,40.00
2023-03-19T00:28:07.266Z,39.25
2023-03-19T00:30:36.281Z,40.50
2023-03-19T00:33:04.785Z,41.50
2023-03-19T00:35:33.769Z,39.50
2023-03-19T00:38:02.774Z,39.75
2023-03-19T00:40:31.579Z,40.00
2023-03-19T00:42:59.918Z,40.00
2023-03-19T00:45:28.930Z,39.50
2023-03-19T00:53:31.480Z,38.75
2023-03-19T00:56:00.053Z,41.50
2023-03-19T00:58:28.455Z,40.25
2023-03-19T01:00:57.262Z,42.00
2023-03-19T01:03:25.627Z,41.75
2023-03-19T01:05:53.958Z,40.25
2023-03-19T01:08:22.294Z,41.50
2023-03-19T01:10:50.668Z,42.00
2023-03-19T01:13:19.386Z,39.75
2023-03-19T01:18:31.813Z,41.00
2023-03-19T01:21:14.178Z,41.50
2023-03-19T01:29:07.380Z,41.25
2023-03-19T01:31:51.863Z,40.75
2023-03-19T01:34:30.131Z,41.00
2023-03-19T01:37:25.806Z,43.00
2023-03-19T01:40:01.228Z,43.50
2023-03-19T01:42:31.309Z,45.25
2023-03-19T01:45:46.608Z,43.25
2023-03-19T01:51:34.058Z,42.25
2023-03-19T01:54:18.791Z,43.00
2023-03-19T01:59:54.816Z,44.25
2023-03-19T02:11:12.604Z,43.25
2023-03-19T02:16:36.169Z,43.75
2023-03-19T02:19:06.479Z,43.25
2023-03-19T02:21:35.916Z,45.25
2023-03-19T02:24:11.149Z,42.75
2023-03-19T02:26:53.852Z,43.50
2023-03-19T02:29:25.211Z,41.00
2023-03-19T02:31:59.862Z,44.50
2023-03-19T02:34:28.555Z,45.75
2023-03-19T02:37:05.884Z,40.50
2023-03-19T02:42:34.140Z,44.25
2023-03-19T02:47:52.226Z,43.00
2023-03-19T02:50:37.887Z,44.50
2023-03-19T02:53:09.446Z,45.25
2023-03-19T02:58:29.733Z,44.25
2023-03-19T03:03:47.456Z,41.50
2023-03-19T03:06:20.050Z,46.00
2023-03-19T03:11:45.055Z,42.25
2023-03-19T03:22:33.713Z,42.75
2023-03-19T03:25:02.435Z,43.75
2023-03-19T03:27:31.981Z,43.50
2023-03-19T03:30:00.536Z,43.50
2023-03-19T03:32:29.016Z,43.75
2023-03-19T03:34:57.429Z,42.50
2023-03-19T03:37:25.726Z,43.00
2023-03-19T03:39:54.349Z,44.00
2023-03-19T03:42:23.029Z,42.75
2023-03-19T03:44:51.433Z,43.75
2023-03-19T03:47:19.865Z,41.00
2023-03-19T03:49:48.167Z,42.25
2023-03-19T03:52:16.701Z,45.25
2023-03-19T03:54:45.067Z,44.00
2023-03-19T03:57:13.388Z,42.75
2023-03-19T03:59:41.869Z,41.75
2023-03-19T04:02:10.358Z,42.00
2023-03-19T04:04:39.109Z,43.75
2023-03-19T04:07:07.740Z,43.50
2023-03-19T04:09:36.987Z,42.75
2023-03-19T04:12:05.572Z,42.75
2023-03-19T04:14:33.879Z,42.75
2023-03-19T04:17:02.192Z,41.75
2023-03-19T04:19:30.587Z,43.50
2023-03-19T04:22:00.570Z,44.00
2023-03-19T04:24:29.461Z,43.75
2023-03-19T04:26:57.811Z,40.25
2023-03-19T04:29:26.495Z,40.25
2023-03-19T04:31:54.798Z,40.75
2023-03-19T04:34:23.072Z,40.75
2023-03-19T04:36:52.762Z,42.25
2023-03-19T04:39:21.135Z,40.75
2023-03-19T04:41:50.016Z,38.75
2023-03-19T04:44:18.792Z,42.50
2023-03-19T04:46:47.364Z,43.50
2023-03-19T04:49:16.743Z,40.50
2023-03-19T04:51:45.197Z,43.00
2023-03-19T04:54:13.757Z,40.25
2023-03-19T04:56:42.064Z,43.75
2023-03-19T04:59:11.566Z,41.00
2023-03-19T05:01:40.063Z,42.00
2023-03-19T05:04:09.299Z,42.75
2023-03-19T05:06:39.163Z,43.25
2023-03-19T05:09:08.675Z,41.50
2023-03-19T05:11:37.560Z,42.25
2023-03-19T05:14:06.528Z,42.00
2023-03-19T05:16:36.583Z,41.50
2023-03-19T05:19:04.906Z,41.00
2023-03-19T05:21:33.644Z,41.25
2023-03-19T05:24:02.072Z,41.75
2023-03-19T05:26:33.117Z,40.75
2023-03-19T05:29:01.465Z,38.75
2023-03-19T05:31:29.860Z,40.75
2023-03-19T05:33:58.161Z,39.25
2023-03-19T05:36:26.554Z,39.50
2023-03-19T05:38:54.957Z,39.50
2023-03-19T05:41:23.681Z,43.75
2023-03-19T05:43:52.304Z,39.50
2023-03-19T05:46:20.756Z,38.25
2023-03-19T05:48:49.061Z,41.00
2023-03-19T05:51:17.555Z,39.50
2023-03-19T05:53:46.000Z,40.75
2023-03-19T05:56:14.359Z,39.00
2023-03-19T05:58:42.708Z,38.50
2023-03-19T06:01:11.446Z,39.00
2023-03-19T06:03:39.798Z,37.75
2023-03-19T06:06:08.595Z,39.75
2023-03-19T06:08:36.938Z,39.75
2023-03-19T06:11:05.493Z,39.50
2023-03-19T06:13:33.864Z,41.25
2023-03-19T06:16:02.985Z,37.00
2023-03-19T06:18:31.313Z,40.25
2023-03-19T06:20:59.697Z,40.00
2023-03-19T06:23:28.033Z,38.75
2023-03-19T06:25:56.400Z,39.00
2023-03-19T06:28:24.789Z,37.25
2023-03-19T06:30:57.982Z,40.00
2023-03-19T06:33:28.666Z,39.25
2023-03-19T06:35:57.468Z,36.00
2023-03-19T06:38:25.914Z,38.25
2023-03-19T06:40:54.197Z,38.25
2023-03-19T06:43:22.859Z,37.00
2023-03-19T06:45:51.623Z,35.50
2023-03-19T06:48:20.013Z,36.00
2023-03-19T06:50:48.744Z,37.00
2023-03-19T06:53:17.072Z,38.00
2023-03-19T06:55:48.035Z,38.50
2023-03-19T06:58:16.419Z,34.75
2023-03-19T07:00:44.897Z,37.50
2023-03-19T07:03:13.353Z,37.00
2023-03-19T07:05:41.685Z,36.75
2023-03-19T07:08:12.879Z,33.75
2023-03-19T07:10:41.220Z,36.00
2023-03-19T07:13:09.533Z,35.50
2023-03-19T07:15:37.911Z,38.50
2023-03-19T07:18:06.584Z,38.75
2023-03-19T07:20:35.174Z,38.00
2023-03-19T07:23:03.963Z,35.25
2023-03-19T07:25:32.777Z,35.25
2023-03-19T07:28:01.328Z,37.75
2023-03-19T07:30:29.681Z,36.75
2023-03-19T07:32:58.048Z,37.25
2023-03-19T07:35:26.413Z,37.00
2023-03-19T07:37:54.740Z,35.50
2023-03-19T07:40:23.290Z,37.00
2023-03-19T07:42:52.265Z,37.25
2023-03-19T07:45:20.796Z,34.00
2023-03-19T07:47:52.429Z,34.50
2023-03-19T07:50:21.040Z,35.75
2023-03-19T07:52:52.273Z,35.75
2023-03-19T07:55:20.578Z,36.25
2023-03-19T07:57:49.366Z,34.50
2023-03-19T08:00:18.332Z,37.25
2023-03-19T08:02:47.157Z,35.75
2023-03-19T08:05:15.967Z,35.50
2023-03-19T08:07:45.840Z,35.75
2023-03-19T08:10:14.222Z,36.50
2023-03-19T08:12:42.556Z,35.25
2023-03-19T08:15:12.993Z,33.25
2023-03-19T08:17:41.347Z,36.00
2023-03-19T08:20:14.704Z,37.00
2023-03-19T08:22:43.836Z,36.00
2023-03-19T08:25:12.745Z,34.50
2023-03-19T08:27:41.397Z,34.50
2023-03-19T08:30:11.267Z,35.00
2023-03-19T08:32:39.577Z,35.75
2023-03-19T08:35:08.387Z,36.75
2023-03-19T08:37:36.699Z,35.00
2023-03-19T08:40:05.803Z,35.25
2023-03-19T08:42:35.329Z,35.50
2023-03-19T08:45:03.646Z,33.50
2023-03-19T08:47:32.175Z,34.75
2023-03-19T08:50:00.455Z,34.75
2023-03-19T08:52:28.841Z,34.50
2023-03-19T08:54:57.224Z,35.00
2023-03-19T08:57:25.578Z,34.00
2023-03-19T08:59:56.982Z,35.00
2023-03-19T09:02:25.738Z,38.25
2023-03-19T09:04:54.133Z,35.75
2023-03-19T09:07:22.484Z,34.75
2023-03-19T09:09:50.914Z,37.75
2023-03-19T09:12:19.918Z,35.25
2023-03-19T09:14:48.254Z,35.00
2023-03-19T09:17:16.742Z,35.25
2023-03-19T09:19:45.136Z,33.50
2023-03-19T09:22:13.468Z,33.50
2023-03-19T09:24:41.934Z,34.25
2023-03-19T09:27:10.294Z,32.50
2023-03-19T09:29:38.716Z,32.75
2023-03-19T09:32:07.444Z,32.00
2023-03-19T09:34:35.752Z,33.75
2023-03-19T09:37:04.066Z,33.00
2023-03-19T09:39:33.348Z,32.50
2023-03-19T09:42:21.317Z,33.25
2023-03-19T09:44:50.279Z,33.50
2023-03-19T09:47:35.318Z,31.75
2023-03-19T09:50:26.709Z,33.00
2023-03-19T09:53:03.189Z,33.25
2023-03-19T09:56:00.996Z,33.00
2023-03-19T09:58:37.349Z,35.50
2023-03-19T10:01:05.889Z,32.00
2023-03-19T10:04:00.600Z,33.25
2023-03-19T10:06:42.007Z,34.75
2023-03-19T10:09:47.174Z,33.75
2023-03-19T10:12:24.173Z,33.50
2023-03-19T10:15:05.234Z,33.25
2023-03-19T10:18:01.368Z,35.00
2023-03-19T10:20:54.302Z,30.75
2023-03-19T10:23:32.362Z,33.25
2023-03-19T10:26:05.337Z,31.50
2023-03-19T10:28:33.680Z,34.75
2023-03-19T10:31:22.173Z,34.50
2023-03-19T10:34:21.301Z,33.25
2023-03-19T10:36:49.580Z,33.75
2023-03-19T10:39:19.933Z,33.50
2023-03-19T10:42:14.114Z,34.75
2023-03-19T10:45:25.231Z,35.00
2023-03-19T10:47:54.015Z,34.75
2023-03-19T10:50:29.351Z,33.00
2023-03-19T10:53:20.758Z,36.00
2023-03-19T10:56:02.815Z,32.50
2023-03-19T10:58:33.069Z,33.75
2023-03-19T11:01:08.140Z,34.50
2023-03-19T11:03:38.804Z,34.75
2023-03-19T11:06:24.915Z,32.50
2023-03-19T11:09:12.072Z,34.75
2023-03-19T11:11:50.965Z,33.00
2023-03-19T11:14:41.469Z,32.50
2023-03-19T11:17:22.226Z,33.50
2023-03-19T11:19:59.627Z,34.00
2023-03-19T11:22:40.174Z,35.25
2023-03-19T11:25:20.649Z,34.25
2023-03-19T11:28:16.113Z,35.25
2023-03-19T11:31:09.509Z,33.25
2023-03-19T11:34:19.041Z,32.75
2023-03-19T11:37:32.559Z,33.00
2023-03-19T11:40:14.876Z,34.75
2023-03-19T11:42:49.232Z,34.75
2023-03-19T11:45:44.645Z,36.75
2023-03-19T11:48:25.308Z,37.50
2023-03-19T11:51:10.589Z,36.00
2023-03-19T11:53:53.478Z,35.75
2023-03-19T11:56:39.909Z,37.50
2023-03-19T11:59:18.448Z,37.50
2023-03-19T12:02:22.165Z,36.75
2023-03-19T12:05:27.716Z,34.25
2023-03-19T12:08:14.402Z,37.50
2023-03-19T12:11:00.539Z,37.25
2023-03-19T12:13:50.004Z,40.00
2023-03-19T12:16:24.158Z,36.00
2023-03-19T12:18:58.706Z,36.75
2023-03-19T12:21:37.025Z,37.00
2023-03-19T12:24:26.092Z,35.25
2023-03-19T12:27:19.988Z,38.75
2023-03-19T12:30:12.914Z,37.50
2023-03-19T12:33:12.464Z,37.25
2023-03-19T12:35:44.166Z,38.00
2023-03-19T12:38:28.063Z,38.50
2023-03-19T12:41:04.763Z,41.75
2023-03-19T12:43:52.306Z,43.50
2023-03-19T12:46:43.293Z,42.50
2023-03-19T12:49:23.994Z,43.25
2023-03-19T12:52:21.619Z,41.00
2023-03-19T12:55:18.590Z,37.50
2023-03-19T12:57:53.672Z,40.50
2023-03-19T13:00:31.898Z,41.00
2023-03-19T13:03:23.378Z,40.50
2023-03-19T13:06:17.769Z,38.50
2023-03-19T13:09:00.282Z,40.50
2023-03-19T13:11:49.674Z,36.75
2023-03-19T13:14:46.469Z,38.00
2023-03-19T13:17:31.071Z,36.75
2023-03-19T13:20:01.767Z,37.50
2023-03-19T13:22:35.621Z,39.50
2023-03-19T13:25:05.433Z,37.00
2023-03-19T13:27:37.775Z,37.25
2023-03-19T13:30:11.857Z,38.00
2023-03-19T13:32:49.480Z,39.75
2023-03-19T13:35:27.051Z,38.50
2023-03-19T13:38:14.971Z,38.25
2023-03-19T13:40:48.975Z,37.00
2023-03-19T13:43:29.578Z,36.75
2023-03-19T13:46:13.258Z,37.75
2023-03-19T13:48:47.693Z,36.00
2023-03-19T13:51:26.769Z,39.25
2023-03-19T13:54:09.166Z,37.50
2023-03-19T13:57:08.834Z,37.75
2023-03-19T13:59:45.603Z,41.00
2023-03-19T14:02:23.143Z,38.00
2023-03-19T14:04:56.093Z,37.25
2023-03-19T14:07:30.127Z,41.25
2023-03-19T14:09:58.540Z,39.75
2023-03-19T14:12:44.081Z,39.00
2023-03-19T14:15:12.345Z,35.75
2023-03-19T14:18:08.815Z,39.50
2023-03-19T14:20:52.761Z,40.50
2023-03-19T14:23:39.557Z,39.50
2023-03-19T14:26:27.014Z,38.50
2023-03-19T14:29:09.318Z,36.50
2023-03-19T14:31:57.281Z,40.75
2023-03-19T14:34:25.756Z,37.50
2023-03-19T14:37:04.911Z,39.00
2023-03-19T14:39:46.202Z,40.00
2023-03-19T14:43:00.888Z,37.50
2023-03-19T14:45:32.234Z,37.00
2023-03-19T14:48:13.970Z,37.50
2023-03-19T14:51:01.462Z,39.25
2023-03-19T14:53:35.508Z,37.25
2023-03-19T14:56:17.388Z,37.25
2023-03-19T14:58:54.594Z,38.50
2023-03-19T15:01:25.869Z,38.50
2023-03-19T15:04:10.199Z,37.00
2023-03-19T15:06:41.698Z,39.75
2023-03-19T15:09:24.643Z,36.25
2023-03-19T15:12:10.748Z,35.75
2023-03-19T15:15:10.600Z,36.50
2023-03-19T15:17:39.282Z,37.75
2023-03-19T15:20:24.590Z,39.25
2023-03-19T15:23:03.713Z,37.50
2023-03-19T15:25:33.286Z,37.00
2023-03-19T15:28:14.043Z,38.75
2023-03-19T15:30:54.728Z,41.75
2023-03-19T15:33:41.879Z,36.25
2023-03-19T15:36:18.271Z,37.50
2023-03-19T15:39:10.467Z,39.75
2023-03-19T15:41:49.333Z,37.00
2023-03-19T15:44:34.134Z,39.25
2023-03-19T15:47:06.518Z,38.00
2023-03-19T15:49:44.597Z,37.00
2023-03-19T15:52:17.713Z,39.75
2023-03-19T15:54:46.326Z,36.50
2023-03-19T15:57:17.977Z,38.25
2023-03-19T15:59:47.860Z,36.25
2023-03-19T16:02:32.239Z,37.50
2023-03-19T16:08:01.338Z,39.50
2023-03-19T16:10:29.668Z,38.25
2023-03-19T16:12:58.080Z,37.75
2023-03-19T16:15:52.741Z,38.25
2023-03-19T16:18:21.002Z,37.25
2023-03-19T16:21:14.507Z,39.25
2023-03-19T16:23:50.612Z,36.75
2023-03-19T16:26:22.499Z,39.25
2023-03-19T16:29:18.986Z,36.75
2023-03-19T16:32:09.881Z,37.00
2023-03-19T16:34:47.390Z,37.75
2023-03-19T16:37:27.951Z,37.50
2023-03-19T16:40:17.545Z,36.25
2023-03-19T16:42:46.710Z,38.75
2023-03-19T16:45:30.721Z,34.75
2023-03-19T16:48:01.262Z,38.50
2023-03-19T16:50:41.152Z,37.25
2023-03-19T16:53:26.370Z,38.00
2023-03-19T16:55:56.907Z,34.75
2023-03-19T16:58:34.045Z,39.50
2023-03-19T17:01:03.007Z,38.75
2023-03-19T17:03:31.391Z,39.00
2023-03-19T17:05:59.794Z,38.25
2023-03-19T17:08:28.174Z,37.00
2023-03-19T17:10:57.170Z,36.50
2023-03-19T17:13:32.340Z,39.00
2023-03-19T17:16:08.324Z,36.00
2023-03-19T17:18:39.940Z,37.00
2023-03-19T17:21:13.300Z,39.00
2023-03-19T17:23:42.009Z,36.75
2023-03-19T17:26:26.761Z,36.25
2023-03-19T17:28:56.534Z,39.75
2023-03-19T17:31:29.566Z,38.00
2023-03-19T17:34:05.891Z,37.50
2023-03-19T17:36:34.585Z,36.00
2023-03-19T17:39:03.182Z,36.25
2023-03-19T17:41:33.736Z,37.00
2023-03-19T17:44:05.784Z,36.50
2023-03-19T17:46:40.840Z,36.25
2023-03-19T17:49:17.798Z,34.25
2023-03-19T17:51:46.346Z,38.50
2023-03-19T17:54:14.989Z,37.25
2023-03-19T17:56:44.517Z,34.50
2023-03-19T17:59:13.090Z,39.25
2023-03-19T18:01:44.577Z,36.00
2023-03-19T18:04:17.068Z,38.75
2023-03-19T18:06:53.238Z,37.25
2023-03-19T18:09:27.938Z,35.25
2023-03-19T18:11:56.846Z,36.50
2023-03-19T18:14:25.243Z,37.75
2023-03-19T18:16:53.598Z,38.25
2023-03-19T18:19:32.988Z,39.00
2023-03-19T18:22:01.521Z,35.75
2023-03-19T18:24:29.877Z,34.25
2023-03-19T18:26:58.189Z,36.75
2023-03-19T18:29:26.741Z,34.25
2023-03-19T18:31:55.364Z,36.75
2023-03-19T18:34:23.769Z,38.50
2023-03-19T18:36:52.188Z,36.75
2023-03-19T18:39:20.459Z,38.75
2023-03-19T18:41:48.769Z,34.50
2023-03-19T18:44:17.518Z,35.00
2023-03-19T18:46:46.079Z,33.00
2023-03-19T18:49:25.327Z,36.25
2023-03-19T18:52:03.435Z,34.50
2023-03-19T18:54:32.941Z,34.00
2023-03-19T18:57:03.078Z,35.75
2023-03-19T18:59:34.370Z,36.75
2023-03-19T19:02:20.542Z,36.25
2023-03-19T19:04:49.023Z,34.00
2023-03-19T19:07:18.269Z,36.75
2023-03-19T19:09:47.191Z,35.25
2023-03-19T19:12:18.673Z,35.25
2023-03-19T19:14:47.768Z,36.75
2023-03-19T19:17:22.367Z,36.25
2023-03-19T19:19:50.737Z,35.00
2023-03-19T19:22:20.481Z,35.00
2023-03-19T19:24:48.873Z,35.00
2023-03-19T19:27:27.088Z,36.25
2023-03-19T19:29:56.084Z,36.50
2023-03-19T19:32:27.225Z,32.75
2023-03-19T19:34:56.083Z,34.00
2023-03-19T19:37:24.968Z,35.25
2023-03-19T19:39:53.904Z,34.00
2023-03-19T19:42:24.552Z,34.75
2023-03-19T19:44:55.522Z,35.00
2023-03-19T19:47:23.918Z,34.00
2023-03-19T19:49:52.235Z,33.00
2023-03-19T19:52:21.357Z,33.75
2023-03-19T19:54:49.702Z,36.50
2023-03-19T19:57:20.376Z,33.00
2023-03-19T19:59:49.282Z,34.00
2023-03-19T20:02:25.984Z,33.75
2023-03-19T20:04:54.702Z,31.50
2023-03-19T20:07:23.332Z,33.50
2023-03-19T20:09:52.374Z,33.50
2023-03-19T20:12:29.216Z,33.25
2023-03-19T20:14:58.835Z,31.50
2023-03-19T20:17:28.168Z,31.75
2023-03-19T20:19:56.697Z,31.00
2023-03-19T20:22:25.017Z,33.25
2023-03-19T20:24:53.311Z,33.75
2023-03-19T20:27:31.996Z,30.25
2023-03-19T20:30:00.949Z,33.25
2023-03-19T20:32:34.572Z,31.50
2023-03-19T20:35:03.966Z,30.75
2023-03-19T20:37:32.676Z,26.50
2023-03-19T20:40:00.973Z,30.50
2023-03-19T20:42:31.673Z,30.25
2023-03-19T20:45:00.753Z,31.00
2023-03-19T20:47:32.404Z,28.50
2023-03-19T20:50:00.697Z,29.50
2023-03-19T20:52:29.299Z,26.00
2023-03-19T20:54:57.970Z,28.25
2023-03-19T20:57:31.487Z,30.00
2023-03-19T21:00:13.970Z,28.75
2023-03-19T21:02:42.300Z,25.50
2023-03-19T21:05:14.672Z,29.50
2023-03-19T21:07:49.166Z,28.75
2023-03-19T21:10:35.605Z,25.25
2023-03-19T21:13:04.626Z,27.75
2023-03-19T21:15:33.560Z,28.00
2023-03-19T21:18:02.578Z,26.50
2023-03-19T21:20:33.008Z,24.50
2023-03-19T21:23:08.944Z,26.50
2023-03-19T21:25:37.967Z,25.50
2023-03-19T21:28:13.198Z,25.25
2023-03-19T21:30:47.560Z,27.25
2023-03-19T21:33:28.039Z,25.00
2023-03-19T21:35:58.080Z,24.25
2023-03-19T21:38:27.192Z,26.25
2023-03-19T21:41:02.940Z,25.25
2023-03-19T21:43:37.055Z,24.00
2023-03-19T21:46:21.347Z,24.75
2023-03-19T21:48:52.066Z,23.00
2023-03-19T21:51:20.401Z,26.00
2023-03-19T21:53:49.163Z,25.00
2023-03-19T21:56:25.332Z,24.75
2023-03-19T21:58:54.766Z,27.00
2023-03-19T22:01:26.368Z,26.50
2023-03-19T22:03:56.774Z,26.50
2023-03-19T22:06:25.794Z,26.00
2023-03-19T22:08:57.131Z,26.50
2023-03-19T22:11:31.843Z,24.75
2023-03-19T22:14:08.704Z,27.50
2023-03-19T22:16:37.410Z,27.00
2023-03-19T22:19:06.021Z,24.00
2023-03-19T22:21:35.794Z,23.00
2023-03-19T22:24:04.167Z,25.50
2023-03-19T22:26:47.393Z,26.75
2023-03-19T22:29:24.454Z,24.50
2023-03-19T22:31:54.689Z,24.50
2023-03-19T22:34:26.951Z,26.25
2023-03-19T22:36:55.583Z,25.50
2023-03-19T22:39:24.004Z,23.75
2023-03-19T22:41:52.501Z,25.50
2023-03-19T22:44:25.481Z,27.25
2023-03-19T22:46:55.335Z,25.50
2023-03-19T22:49:25.407Z,25.25
2023-03-19T22:51:53.700Z,26.25
2023-03-19T22:54:22.112Z,28.50
2023-03-19T22:56:50.665Z,27.75
2023-03-19T22:59:19.562Z,28.50
2023-03-19T23:01:48.991Z,28.00
2023-03-19T23:04:27.199Z,27.50
2023-03-19T23:06:57.569Z,29.50
2023-03-19T23:09:34.295Z,29.00
2023-03-19T23:12:04.016Z,30.75
2023-03-19T23:14:32.950Z,31.50
2023-03-19T23:17:18.527Z,34.00
2023-03-19T23:19:46.985Z,35.00
2023-03-19T23:22:18.763Z,36.00
2023-03-19T23:24:47.130Z,38.50
2023-03-19T23:27:27.129Z,34.25
2023-03-19T23:29:55.860Z,31.50
2023-03-19T23:32:24.215Z,33.25
2023-03-19T23:35:00.490Z,28.75
2023-03-19T23:37:29.740Z,30.75
2023-03-19T23:39:58.669Z,31.00
2023-03-19T23:42:30.982Z,32.75
2023-03-19T23:45:04.543Z,31.75
2023-03-19T23:47:33.575Z,30.25
2023-03-19T23:50:02.110Z,32.00
2023-03-19T23:52:30.413Z,29.75
2023-03-19T23:54:58.701Z,31.50
2023-03-19T23:57:28.224Z,31.25
2023-03-19T23:59:57.069Z,29.50
